sensor_id;sensor_type;location;lat;lon;timestamp;P1;durP1;ratioP1;P2;durP2;ratioP2
37559;SDS011;23398;50.928;7.084;2023-03-01T00:01:33;4.03;;;3.07;;
37559;SDS011;23398;50.928;7.084;2023-03-01T00:03:59;4.07;;;3.00;;
37559;SDS011;23398;50.928;7.084;2023-03-01T00:06:25;5.00;;;2.70;;
37559;SDS011;23398;50.928;7.084;2023-03-01T00:08:52;4.63;;;2.90;;
37559;SDS011;23398;50.928;7.084;2023-03-01T00:11:22;4.33;;;2.83;;
37559;SDS011;23398;50.928;7.084;2023-03-01T00:13:50;3.40;;;2.70;;
37559;SDS011;23398;50.928;7.084;2023-03-01T00:16:19;4.50;;;3.17;;
37559;SDS011;23398;50.928;7.084;2023-03-01T00:18:46;4.00;;;2.90;;
37559;SDS011;23398;50.928;7.084;2023-03-01T00:21:12;4.07;;;2.93;;
37559;SDS011;23398;50.928;7.084;2023-03-01T00:23:38;3.67;;;3.07;;
37559;SDS011;23398;50.928;7.084;2023-03-01T00:26:08;5.07;;;2.77;;
37559;SDS011;23398;50.928;7.084;2023-03-01T00:28:37;4.53;;;3.20;;
37559;SDS011;23398;50.928;7.084;2023-03-01T00:31:10;4.43;;;3.07;;
37559;SDS011;23398;50.928;7.084;2023-03-01T00:33:38;6.70;;;3.60;;
37559;SDS011;23398;50.928;7.084;2023-03-01T00:36:04;4.93;;;3.37;;
37559;SDS011;23398;50.928;7.084;2023-03-01T00:38:33;3.67;;;3.03;;
37559;SDS011;23398;50.928;7.084;2023-03-01T00:41:04;4.97;;;3.53;;
37559;SDS011;23398;50.928;7.084;2023-03-01T00:43:31;5.53;;;3.67;;
37559;SDS011;23398;50.928;7.084;2023-03-01T00:46:02;4.87;;;3.53;;
37559;SDS011;23398;50.928;7.084;2023-03-01T00:48:32;5.70;;;3.13;;
37559;SDS011;23398;50.928;7.084;2023-03-01T00:53:53;5.27;;;3.23;;
37559;SDS011;23398;50.928;7.084;2023-03-01T00:56:22;4.93;;;2.93;;
37559;SDS011;23398;50.928;7.084;2023-03-01T00:58:47;4.50;;;3.17;;
37559;SDS011;23398;50.928;7.084;2023-03-01T01:01:17;4.47;;;3.30;;
37559;SDS011;23398;50.928;7.084;2023-03-01T01:03:48;4.27;;;2.90;;
37559;SDS011;23398;50.928;7.084;2023-03-01T01:06:33;5.20;;;3.50;;
37559;SDS011;23398;50.928;7.084;2023-03-01T01:09:00;4.17;;;3.17;;
37559;SDS011;23398;50.928;7.084;2023-03-01T01:11:28;4.57;;;3.37;;
37559;SDS011;23398;50.928;7.084;2023-03-01T01:13:54;7.57;;;3.67;;
37559;SDS011;23398;50.928;7.084;2023-03-01T01:16:21;5.13;;;3.43;;
37559;SDS011;23398;50.928;7.084;2023-03-01T01:18:48;6.10;;;3.70;;
37559;SDS011;23398;50.928;7.084;2023-03-01T01:21:16;5.37;;;3.70;;
37559;SDS011;23398;50.928;7.084;2023-03-01T01:23:43;5.63;;;3.27;;
37559;SDS011;23398;50.928;7.084;2023-03-01T01:26:11;3.80;;;3.00;;
37559;SDS011;23398;50.928;7.084;2023-03-01T01:28:38;3.70;;;2.90;;
37559;SDS011;23398;50.928;7.084;2023-03-01T01:31:04;6.27;;;3.00;;
37559;SDS011;23398;50.928;7.084;2023-03-01T01:33:30;6.20;;;3.30;;
37559;SDS011;23398;50.928;7.084;2023-03-01T01:35:57;4.60;;;3.10;;
37559;SDS011;23398;50.928;7.084;2023-03-01T01:38:22;4.30;;;3.40;;
37559;SDS011;23398;50.928;7.084;2023-03-01T01:40:49;4.90;;;3.50;;
37559;SDS011;23398;50.928;7.084;2023-03-01T01:45:47;5.20;;;3.57;;
37559;SDS011;23398;50.928;7.084;2023-03-01T01:48:14;4.50;;;3.30;;
37559;SDS011;23398;50.928;7.084;2023-03-01T01:50:45;4.03;;;3.17;;
37559;SDS011;23398;50.928;7.084;2023-03-01T01:53:15;4.53;;;3.10;;
37559;SDS011;23398;50.928;7.084;2023-03-01T01:55:47;3.83;;;3.00;;
37559;SDS011;23398;50.928;7.084;2023-03-01T01:58:17;5.27;;;3.20;;
37559;SDS011;23398;50.928;7.084;2023-03-01T02:00:45;3.87;;;2.73;;
37559;SDS011;23398;50.928;7.084;2023-03-01T02:03:13;6.30;;;3.20;;
37559;SDS011;23398;50.928;7.084;2023-03-01T02:05:50;4.47;;;2.77;;
37559;SDS011;23398;50.928;7.084;2023-03-01T02:08:32;5.00;;;2.73;;
37559;SDS011;23398;50.928;7.084;2023-03-01T02:10:59;4.20;;;3.20;;
37559;SDS011;23398;50.928;7.084;2023-03-01T02:13:26;5.23;;;3.07;;
37559;SDS011;23398;50.928;7.084;2023-03-01T02:15:52;4.57;;;2.77;;
37559;SDS011;23398;50.928;7.084;2023-03-01T02:18:18;3.50;;;2.63;;
37559;SDS011;23398;50.928;7.084;2023-03-01T02:21:00;5.10;;;2.80;;
37559;SDS011;23398;50.928;7.084;2023-03-01T02:23:31;4.93;;;2.87;;
37559;SDS011;23398;50.928;7.084;2023-03-01T02:26:04;4.17;;;2.60;;
37559;SDS011;23398;50.928;7.084;2023-03-01T02:28:44;3.90;;;2.70;;
37559;SDS011;23398;50.928;7.084;2023-03-01T02:31:10;3.27;;;2.50;;
37559;SDS011;23398;50.928;7.084;2023-03-01T02:33:59;3.57;;;2.50;;
37559;SDS011;23398;50.928;7.084;2023-03-01T02:36:26;4.27;;;2.40;;
37559;SDS011;23398;50.928;7.084;2023-03-01T02:38:56;2.97;;;2.67;;
37559;SDS011;23398;50.928;7.084;2023-03-01T02:41:23;4.43;;;2.70;;
37559;SDS011;23398;50.928;7.084;2023-03-01T02:43:53;4.00;;;2.70;;
37559;SDS011;23398;50.928;7.084;2023-03-01T02:46:22;4.23;;;2.73;;
37559;SDS011;23398;50.928;7.084;2023-03-01T02:48:51;3.83;;;2.77;;
37559;SDS011;23398;50.928;7.084;2023-03-01T02:51:22;5.67;;;2.97;;
37559;SDS011;23398;50.928;7.084;2023-03-01T02:54:24;4.57;;;2.87;;
37559;SDS011;23398;50.928;7.084;2023-03-01T02:56:55;4.10;;;3.00;;
37559;SDS011;23398;50.928;7.084;2023-03-01T02:59:22;4.93;;;2.60;;
37559;SDS011;23398;50.928;7.084;2023-03-01T03:01:52;4.47;;;2.90;;
37559;SDS011;23398;50.928;7.084;2023-03-01T03:04:18;3.67;;;2.70;;
37559;SDS011;23398;50.928;7.084;2023-03-01T03:06:45;4.70;;;3.37;;
37559;SDS011;23398;50.928;7.084;2023-03-01T03:09:13;5.47;;;2.90;;
37559;SDS011;23398;50.928;7.084;2023-03-01T03:11:39;5.33;;;3.10;;
37559;SDS011;23398;50.928;7.084;2023-03-01T03:14:06;4.57;;;3.00;;
37559;SDS011;23398;50.928;7.084;2023-03-01T03:16:37;4.00;;;2.97;;
37559;SDS011;23398;50.928;7.084;2023-03-01T03:19:06;5.17;;;3.20;;
37559;SDS011;23398;50.928;7.084;2023-03-01T03:21:32;5.20;;;3.00;;
37559;SDS011;23398;50.928;7.084;2023-03-01T03:23:58;3.77;;;3.00;;
37559;SDS011;23398;50.928;7.084;2023-03-01T03:26:24;6.10;;;3.27;;
37559;SDS011;23398;50.928;7.084;2023-03-01T03:28:50;4.90;;;3.20;;
37559;SDS011;23398;50.928;7.084;2023-03-01T03:31:15;4.17;;;3.03;;
37559;SDS011;23398;50.928;7.084;2023-03-01T03:33:41;6.97;;;3.40;;
37559;SDS011;23398;50.928;7.084;2023-03-01T03:36:07;4.37;;;3.20;;
37559;SDS011;23398;50.928;7.084;2023-03-01T03:38:37;4.37;;;2.90;;
37559;SDS011;23398;50.928;7.084;2023-03-01T03:41:05;5.10;;;2.63;;
37559;SDS011;23398;50.928;7.084;2023-03-01T03:43:33;4.47;;;2.70;;
37559;SDS011;23398;50.928;7.084;2023-03-01T03:46:00;4.43;;;2.73;;
37559;SDS011;23398;50.928;7.084;2023-03-01T03:48:30;4.40;;;3.10;;
37559;SDS011;23398;50.928;7.084;2023-03-01T03:50:57;3.70;;;2.77;;
37559;SDS011;23398;50.928;7.084;2023-03-01T03:53:24;3.80;;;2.90;;
37559;SDS011;23398;50.928;7.084;2023-03-01T03:55:51;4.13;;;3.00;;
37559;SDS011;23398;50.928;7.084;2023-03-01T03:58:18;4.47;;;3.23;;
37559;SDS011;23398;50.928;7.084;2023-03-01T04:00:46;4.33;;;2.90;;
37559;SDS011;23398;50.928;7.084;2023-03-01T04:03:14;4.83;;;3.03;;
37559;SDS011;23398;50.928;7.084;2023-03-01T04:05:41;5.30;;;3.00;;
37559;SDS011;23398;50.928;7.084;2023-03-01T04:08:07;3.60;;;2.77;;
37559;SDS011;23398;50.928;7.084;2023-03-01T04:10:35;4.10;;;3.20;;
37559;SDS011;23398;50.928;7.084;2023-03-01T04:13:06;4.40;;;3.17;;
37559;SDS011;23398;50.928;7.084;2023-03-01T04:15:35;4.57;;;3.03;;
37559;SDS011;23398;50.928;7.084;2023-03-01T04:18:01;4.50;;;3.00;;
37559;SDS011;23398;50.928;7.084;2023-03-01T04:20:28;4.80;;;3.40;;
37559;SDS011;23398;50.928;7.084;2023-03-01T04:22:59;3.93;;;3.03;;
37559;SDS011;23398;50.928;7.084;2023-03-01T04:25:38;3.53;;;2.80;;
37559;SDS011;23398;50.928;7.084;2023-03-01T04:28:05;4.10;;;2.90;;
37559;SDS011;23398;50.928;7.084;2023-03-01T04:30:31;4.17;;;3.10;;
37559;SDS011;23398;50.928;7.084;2023-03-01T04:33:00;6.03;;;3.20;;
37559;SDS011;23398;50.928;7.084;2023-03-01T04:35:30;4.17;;;2.90;;
37559;SDS011;23398;50.928;7.084;2023-03-01T04:37:57;4.30;;;3.00;;
37559;SDS011;23398;50.928;7.084;2023-03-01T04:40:23;5.57;;;3.57;;
37559;SDS011;23398;50.928;7.084;2023-03-01T04:42:48;4.97;;;3.20;;
37559;SDS011;23398;50.928;7.084;2023-03-01T04:45:14;4.17;;;2.93;;
37559;SDS011;23398;50.928;7.084;2023-03-01T04:47:40;4.77;;;3.47;;
37559;SDS011;23398;50.928;7.084;2023-03-01T04:50:08;5.10;;;3.43;;
37559;SDS011;23398;50.928;7.084;2023-03-01T04:52:34;5.00;;;3.30;;
37559;SDS011;23398;50.928;7.084;2023-03-01T04:55:00;4.93;;;3.33;;
37559;SDS011;23398;50.928;7.084;2023-03-01T04:57:26;4.17;;;3.17;;
37559;SDS011;23398;50.928;7.084;2023-03-01T04:59:52;5.97;;;3.70;;
37559;SDS011;23398;50.928;7.084;2023-03-01T05:02:17;5.87;;;3.53;;
37559;SDS011;23398;50.928;7.084;2023-03-01T05:04:43;5.27;;;3.60;;
37559;SDS011;23398;50.928;7.084;2023-03-01T05:07:08;4.83;;;3.60;;
37559;SDS011;23398;50.928;7.084;2023-03-01T05:09:34;6.00;;;3.50;;
37559;SDS011;23398;50.928;7.084;2023-03-01T05:12:00;6.33;;;3.40;;
37559;SDS011;23398;50.928;7.084;2023-03-01T05:14:25;5.73;;;3.43;;
37559;SDS011;23398;50.928;7.084;2023-03-01T05:16:51;6.27;;;4.03;;
37559;SDS011;23398;50.928;7.084;2023-03-01T05:19:17;7.90;;;4.30;;
37559;SDS011;23398;50.928;7.084;2023-03-01T05:21:47;6.87;;;3.80;;
37559;SDS011;23398;50.928;7.084;2023-03-01T05:24:29;5.27;;;3.67;;
37559;SDS011;23398;50.928;7.084;2023-03-01T05:26:57;5.73;;;3.70;;
37559;SDS011;23398;50.928;7.084;2023-03-01T05:29:23;6.53;;;3.60;;
37559;SDS011;23398;50.928;7.084;2023-03-01T05:31:51;4.47;;;3.43;;
37559;SDS011;23398;50.928;7.084;2023-03-01T05:34:18;7.17;;;3.80;;
37559;SDS011;23398;50.928;7.084;2023-03-01T05:36:48;5.07;;;3.40;;
37559;SDS011;23398;50.928;7.084;2023-03-01T05:39:14;4.33;;;3.40;;
37559;SDS011;23398;50.928;7.084;2023-03-01T05:41:40;5.77;;;3.60;;
37559;SDS011;23398;50.928;7.084;2023-03-01T05:44:06;6.80;;;3.70;;
37559;SDS011;23398;50.928;7.084;2023-03-01T05:46:31;5.67;;;3.60;;
37559;SDS011;23398;50.928;7.084;2023-03-01T05:48:57;6.40;;;4.07;;
37559;SDS011;23398;50.928;7.084;2023-03-01T05:51:23;8.10;;;3.93;;
37559;SDS011;23398;50.928;7.084;2023-03-01T05:53:48;7.07;;;4.27;;
37559;SDS011;23398;50.928;7.084;2023-03-01T05:56:14;5.97;;;3.87;;
37559;SDS011;23398;50.928;7.084;2023-03-01T05:58:40;5.50;;;3.80;;
37559;SDS011;23398;50.928;7.084;2023-03-01T06:01:10;8.30;;;4.40;;
37559;SDS011;23398;50.928;7.084;2023-03-01T06:03:37;6.63;;;4.17;;
37559;SDS011;23398;50.928;7.084;2023-03-01T06:06:02;6.93;;;4.20;;
37559;SDS011;23398;50.928;7.084;2023-03-01T06:08:28;7.10;;;3.90;;
37559;SDS011;23398;50.928;7.084;2023-03-01T06:10:54;8.30;;;6.05;;
37559;SDS011;23398;50.928;7.084;2023-03-01T06:13:19;8.43;;;5.27;;
37559;SDS011;23398;50.928;7.084;2023-03-01T06:15:45;7.20;;;4.60;;
37559;SDS011;23398;50.928;7.084;2023-03-01T06:18:10;8.17;;;4.73;;
37559;SDS011;23398;50.928;7.084;2023-03-01T06:20:36;7.67;;;4.67;;
37559;SDS011;23398;50.928;7.084;2023-03-01T06:23:01;7.33;;;5.03;;
37559;SDS011;23398;50.928;7.084;2023-03-01T06:25:27;9.67;;;5.60;;
37559;SDS011;23398;50.928;7.084;2023-03-01T06:27:52;7.70;;;4.87;;
37559;SDS011;23398;50.928;7.084;2023-03-01T06:30:19;9.47;;;5.03;;
37559;SDS011;23398;50.928;7.084;2023-03-01T06:32:46;7.50;;;4.77;;
37559;SDS011;23398;50.928;7.084;2023-03-01T06:35:13;7.50;;;4.77;;
37559;SDS011;23398;50.928;7.084;2023-03-01T06:37:42;6.80;;;4.77;;
37559;SDS011;23398;50.928;7.084;2023-03-01T06:40:09;7.60;;;5.00;;
37559;SDS011;23398;50.928;7.084;2023-03-01T06:42:37;7.60;;;5.00;;
37559;SDS011;23398;50.928;7.084;2023-03-01T06:45:04;7.87;;;5.10;;
37559;SDS011;23398;50.928;7.084;2023-03-01T06:47:31;7.67;;;4.80;;
37559;SDS011;23398;50.928;7.084;2023-03-01T06:49:58;8.50;;;4.97;;
37559;SDS011;23398;50.928;7.084;2023-03-01T06:52:24;6.97;;;4.50;;
37559;SDS011;23398;50.928;7.084;2023-03-01T06:54:50;6.40;;;4.37;;
37559;SDS011;23398;50.928;7.084;2023-03-01T06:57:16;8.23;;;5.20;;
37559;SDS011;23398;50.928;7.084;2023-03-01T06:59:41;7.87;;;4.73;;
37559;SDS011;23398;50.928;7.084;2023-03-01T07:02:09;7.57;;;4.80;;
37559;SDS011;23398;50.928;7.084;2023-03-01T07:04:36;7.43;;;5.10;;
37559;SDS011;23398;50.928;7.084;2023-03-01T07:07:03;6.43;;;4.53;;
37559;SDS011;23398;50.928;7.084;2023-03-01T07:09:28;9.90;;;5.53;;
37559;SDS011;23398;50.928;7.084;2023-03-01T07:11:54;8.00;;;4.63;;
37559;SDS011;23398;50.928;7.084;2023-03-01T07:14:20;8.93;;;5.17;;
37559;SDS011;23398;50.928;7.084;2023-03-01T07:16:46;11.70;;;6.33;;
37559;SDS011;23398;50.928;7.084;2023-03-01T07:19:12;13.40;;;5.70;;
37559;SDS011;23398;50.928;7.084;2023-03-01T07:21:38;13.20;;;6.03;;
37559;SDS011;23398;50.928;7.084;2023-03-01T07:24:05;10.60;;;5.40;;
37559;SDS011;23398;50.928;7.084;2023-03-01T07:26:32;10.17;;;5.60;;
37559;SDS011;23398;50.928;7.084;2023-03-01T07:29:04;9.83;;;5.60;;
37559;SDS011;23398;50.928;7.084;2023-03-01T07:31:31;9.30;;;5.57;;
37559;SDS011;23398;50.928;7.084;2023-03-01T07:33:56;9.27;;;5.90;;
37559;SDS011;23398;50.928;7.084;2023-03-01T07:36:22;21.10;;;9.20;;
37559;SDS011;23398;50.928;7.084;2023-03-01T07:38:48;21.97;;;9.00;;
37559;SDS011;23398;50.928;7.084;2023-03-01T07:41:14;14.00;;;7.20;;
37559;SDS011;23398;50.928;7.084;2023-03-01T07:43:39;11.80;;;6.60;;
37559;SDS011;23398;50.928;7.084;2023-03-01T07:46:05;10.67;;;5.93;;
37559;SDS011;23398;50.928;7.084;2023-03-01T07:48:31;10.33;;;6.30;;
37559;SDS011;23398;50.928;7.084;2023-03-01T07:51:01;10.48;;;6.70;;
37559;SDS011;23398;50.928;7.084;2023-03-01T07:53:29;8.02;;;6.18;;
37559;SDS011;23398;50.928;7.084;2023-03-01T07:58:33;11.10;;;7.43;;
37559;SDS011;23398;50.928;7.084;2023-03-01T08:01:04;14.38;;;7.60;;
37559;SDS011;23398;50.928;7.084;2023-03-01T08:03:31;8.27;;;6.45;;
37559;SDS011;23398;50.928;7.084;2023-03-01T08:05:59;7.72;;;5.85;;
37559;SDS011;23398;50.928;7.084;2023-03-01T08:08:25;6.97;;;5.40;;
37559;SDS011;23398;50.928;7.084;2023-03-01T08:10:51;6.72;;;5.60;;
37559;SDS011;23398;50.928;7.084;2023-03-01T08:13:17;7.65;;;5.65;;
37559;SDS011;23398;50.928;7.084;2023-03-01T08:15:47;8.85;;;5.88;;
37559;SDS011;23398;50.928;7.084;2023-03-01T08:18:13;5.60;;;4.97;;
37559;SDS011;23398;50.928;7.084;2023-03-01T08:20:39;7.38;;;5.50;;
37559;SDS011;23398;50.928;7.084;2023-03-01T08:23:05;7.10;;;6.03;;
37559;SDS011;23398;50.928;7.084;2023-03-01T08:25:30;7.45;;;5.80;;
37559;SDS011;23398;50.928;7.084;2023-03-01T08:27:56;6.43;;;5.63;;
37559;SDS011;23398;50.928;7.084;2023-03-01T08:30:21;7.22;;;5.80;;
37559;SDS011;23398;50.928;7.084;2023-03-01T08:32:48;6.88;;;5.45;;
37559;SDS011;23398;50.928;7.084;2023-03-01T08:35:14;7.13;;;5.80;;
37559;SDS011;23398;50.928;7.084;2023-03-01T08:37:40;7.50;;;5.95;;
37559;SDS011;23398;50.928;7.084;2023-03-01T08:40:06;7.70;;;6.25;;
37559;SDS011;23398;50.928;7.084;2023-03-01T08:42:32;7.20;;;5.97;;
37559;SDS011;23398;50.928;7.084;2023-03-01T08:44:58;6.18;;;5.35;;
37559;SDS011;23398;50.928;7.084;2023-03-01T08:47:24;6.78;;;5.60;;
37559;SDS011;23398;50.928;7.084;2023-03-01T08:49:50;5.85;;;5.22;;
37559;SDS011;23398;50.928;7.084;2023-03-01T08:52:15;5.95;;;5.32;;
37559;SDS011;23398;50.928;7.084;2023-03-01T08:54:41;6.20;;;5.32;;
37559;SDS011;23398;50.928;7.084;2023-03-01T08:57:07;6.05;;;5.38;;
37559;SDS011;23398;50.928;7.084;2023-03-01T08:59:33;6.40;;;5.70;;
37559;SDS011;23398;50.928;7.084;2023-03-01T09:02:02;7.07;;;5.65;;
37559;SDS011;23398;50.928;7.084;2023-03-01T09:04:29;6.05;;;5.20;;
37559;SDS011;23398;50.928;7.084;2023-03-01T09:06:54;6.90;;;5.72;;
37559;SDS011;23398;50.928;7.084;2023-03-01T09:09:20;6.13;;;5.43;;
37559;SDS011;23398;50.928;7.084;2023-03-01T09:11:46;6.72;;;5.25;;
37559;SDS011;23398;50.928;7.084;2023-03-01T09:14:14;6.20;;;5.32;;
37559;SDS011;23398;50.928;7.084;2023-03-01T09:16:40;6.25;;;5.07;;
37559;SDS011;23398;50.928;7.084;2023-03-01T09:19:06;5.75;;;4.95;;
37559;SDS011;23398;50.928;7.084;2023-03-01T09:21:31;6.18;;;4.88;;
37559;SDS011;23398;50.928;7.084;2023-03-01T09:23:57;7.45;;;5.18;;
37559;SDS011;23398;50.928;7.084;2023-03-01T09:26:23;6.32;;;5.35;;
37559;SDS011;23398;50.928;7.084;2023-03-01T09:28:50;6.18;;;5.03;;
37559;SDS011;23398;50.928;7.084;2023-03-01T09:31:18;5.82;;;5.22;;
37559;SDS011;23398;50.928;7.084;2023-03-01T09:33:48;6.28;;;5.43;;
37559;SDS011;23398;50.928;7.084;2023-03-01T09:36:16;6.05;;;5.13;;
37559;SDS011;23398;50.928;7.084;2023-03-01T09:38:43;5.90;;;5.28;;
37559;SDS011;23398;50.928;7.084;2023-03-01T09:41:09;6.40;;;5.43;;
37559;SDS011;23398;50.928;7.084;2023-03-01T09:43:46;5.82;;;5.28;;
37559;SDS011;23398;50.928;7.084;2023-03-01T09:46:18;6.30;;;5.18;;
37559;SDS011;23398;50.928;7.084;2023-03-01T09:48:57;6.40;;;5.70;;
37559;SDS011;23398;50.928;7.084;2023-03-01T09:51:28;6.55;;;5.60;;
37559;SDS011;23398;50.928;7.084;2023-03-01T09:53:57;7.43;;;5.53;;
37559;SDS011;23398;50.928;7.084;2023-03-01T09:59:15;6.18;;;4.93;;
37559;SDS011;23398;50.928;7.084;2023-03-01T10:02:05;6.25;;;5.47;;
37559;SDS011;23398;50.928;7.084;2023-03-01T10:04:49;5.85;;;5.18;;
37559;SDS011;23398;50.928;7.084;2023-03-01T10:07:21;6.72;;;5.45;;
37559;SDS011;23398;50.928;7.084;2023-03-01T10:10:10;6.93;;;5.35;;
37559;SDS011;23398;50.928;7.084;2023-03-01T10:12:48;6.70;;;5.25;;
37559;SDS011;23398;50.928;7.084;2023-03-01T10:15:16;6.50;;;5.50;;
37559;SDS011;23398;50.928;7.084;2023-03-01T10:20:33;6.53;;;5.63;;
37559;SDS011;23398;50.928;7.084;2023-03-01T10:23:11;8.77;;;5.97;;
37559;SDS011;23398;50.928;7.084;2023-03-01T10:28:43;7.88;;;5.70;;
37559;SDS011;23398;50.928;7.084;2023-03-01T10:31:29;6.75;;;5.35;;
37559;SDS011;23398;50.928;7.084;2023-03-01T10:34:32;6.93;;;5.70;;
37559;SDS011;23398;50.928;7.084;2023-03-01T10:36:59;8.63;;;5.57;;
37559;SDS011;23398;50.928;7.084;2023-03-01T10:39:54;6.78;;;5.47;;
37559;SDS011;23398;50.928;7.084;2023-03-01T10:42:46;7.85;;;5.20;;
37559;SDS011;23398;50.928;7.084;2023-03-01T10:45:36;7.82;;;5.50;;
37559;SDS011;23398;50.928;7.084;2023-03-01T10:51:04;7.60;;;5.47;;
37559;SDS011;23398;50.928;7.084;2023-03-01T10:53:35;8.55;;;5.53;;
37559;SDS011;23398;50.928;7.084;2023-03-01T10:56:06;7.55;;;5.80;;
37559;SDS011;23398;50.928;7.084;2023-03-01T10:58:38;8.32;;;6.32;;
37559;SDS011;23398;50.928;7.084;2023-03-01T11:01:23;5.88;;;5.07;;
37559;SDS011;23398;50.928;7.084;2023-03-01T11:06:31;7.43;;;5.72;;
37559;SDS011;23398;50.928;7.084;2023-03-01T11:09:01;7.88;;;5.95;;
37559;SDS011;23398;50.928;7.084;2023-03-01T11:11:39;7.85;;;5.57;;
37559;SDS011;23398;50.928;7.084;2023-03-01T11:16:47;5.90;;;4.95;;
37559;SDS011;23398;50.928;7.084;2023-03-01T11:19:23;6.43;;;5.10;;
37559;SDS011;23398;50.928;7.084;2023-03-01T11:21:59;6.13;;;4.78;;
37559;SDS011;23398;50.928;7.084;2023-03-01T11:27:22;7.25;;;5.07;;
37559;SDS011;23398;50.928;7.084;2023-03-01T11:29:59;6.15;;;4.72;;
37559;SDS011;23398;50.928;7.084;2023-03-01T11:32:26;6.45;;;4.68;;
37559;SDS011;23398;50.928;7.084;2023-03-01T11:34:56;8.77;;;5.13;;
37559;SDS011;23398;50.928;7.084;2023-03-01T11:37:32;5.88;;;4.68;;
37559;SDS011;23398;50.928;7.084;2023-03-01T11:40:21;6.25;;;4.97;;
37559;SDS011;23398;50.928;7.084;2023-03-01T11:42:52;5.45;;;4.38;;
37559;SDS011;23398;50.928;7.084;2023-03-01T11:45:26;6.88;;;5.15;;
37559;SDS011;23398;50.928;7.084;2023-03-01T11:48:14;6.53;;;4.72;;
37559;SDS011;23398;50.928;7.084;2023-03-01T11:50:44;6.20;;;4.53;;
37559;SDS011;23398;50.928;7.084;2023-03-01T11:53:26;6.95;;;4.57;;
37559;SDS011;23398;50.928;7.084;2023-03-01T11:56:21;8.15;;;4.97;;
37559;SDS011;23398;50.928;7.084;2023-03-01T12:05:19;6.10;;;5.15;;
37559;SDS011;23398;50.928;7.084;2023-03-01T12:16:40;6.93;;;4.40;;
37559;SDS011;23398;50.928;7.084;2023-03-01T12:21:50;7.13;;;4.70;;
37559;SDS011;23398;50.928;7.084;2023-03-01T12:27:52;8.32;;;5.28;;
37559;SDS011;23398;50.928;7.084;2023-03-01T12:38:59;6.00;;;4.32;;
37559;SDS011;23398;50.928;7.084;2023-03-01T12:42:18;7.63;;;4.28;;
37559;SDS011;23398;50.928;7.084;2023-03-01T12:45:22;6.63;;;4.53;;
37559;SDS011;23398;50.928;7.084;2023-03-01T12:48:10;7.80;;;5.32;;
37559;SDS011;23398;50.928;7.084;2023-03-01T12:50:50;5.03;;;4.30;;
37559;SDS011;23398;50.928;7.084;2023-03-01T12:55:51;6.45;;;4.53;;
37559;SDS011;23398;50.928;7.084;2023-03-01T12:58:28;5.95;;;4.68;;
37559;SDS011;23398;50.928;7.084;2023-03-01T13:11:56;6.10;;;4.15;;
37559;SDS011;23398;50.928;7.084;2023-03-01T13:16:51;6.63;;;5.05;;
37559;SDS011;23398;50.928;7.084;2023-03-01T13:19:18;5.85;;;4.47;;
37559;SDS011;23398;50.928;7.084;2023-03-01T13:21:57;5.85;;;4.40;;
37559;SDS011;23398;50.928;7.084;2023-03-01T13:24:36;6.35;;;4.03;;
37559;SDS011;23398;50.928;7.084;2023-03-01T13:29:32;5.88;;;4.50;;
37559;SDS011;23398;50.928;7.084;2023-03-01T13:32:31;7.28;;;5.18;;
37559;SDS011;23398;50.928;7.084;2023-03-01T13:37:36;7.03;;;4.97;;
37559;SDS011;23398;50.928;7.084;2023-03-01T13:40:04;8.45;;;4.75;;
37559;SDS011;23398;50.928;7.084;2023-03-01T13:42:54;6.45;;;4.95;;
37559;SDS011;23398;50.928;7.084;2023-03-01T13:45:25;7.20;;;4.93;;
37559;SDS011;23398;50.928;7.084;2023-03-01T13:48:04;7.60;;;5.43;;
37559;SDS011;23398;50.928;7.084;2023-03-01T13:50:46;7.03;;;5.22;;
37559;SDS011;23398;50.928;7.084;2023-03-01T13:53:19;6.88;;;5.25;;
37559;SDS011;23398;50.928;7.084;2023-03-01T13:55:48;6.07;;;5.38;;
37559;SDS011;23398;50.928;7.084;2023-03-01T13:58:27;6.43;;;4.95;;
37559;SDS011;23398;50.928;7.084;2023-03-01T14:01:35;6.72;;;4.63;;
37559;SDS011;23398;50.928;7.084;2023-03-01T14:03:49;7.20;;;4.55;;
37559;SDS011;23398;50.928;7.084;2023-03-01T14:06:15;6.72;;;4.90;;
37559;SDS011;23398;50.928;7.084;2023-03-01T14:08:45;7.60;;;4.95;;
37559;SDS011;23398;50.928;7.084;2023-03-01T14:19:47;4.93;;;4.18;;
37559;SDS011;23398;50.928;7.084;2023-03-01T14:22:27;6.00;;;4.72;;
37559;SDS011;23398;50.928;7.084;2023-03-01T14:25:01;5.35;;;4.40;;
37559;SDS011;23398;50.928;7.084;2023-03-01T14:27:35;5.40;;;4.47;;
37559;SDS011;23398;50.928;7.084;2023-03-01T14:30:20;7.72;;;4.65;;
37559;SDS011;23398;50.928;7.084;2023-03-01T14:32:59;5.28;;;4.38;;
37559;SDS011;23398;50.928;7.084;2023-03-01T14:35:28;6.18;;;4.88;;
37559;SDS011;23398;50.928;7.084;2023-03-01T14:37:56;5.80;;;4.57;;
37559;SDS011;23398;50.928;7.084;2023-03-01T14:40:27;7.90;;;5.68;;
37559;SDS011;23398;50.928;7.084;2023-03-01T14:42:58;7.18;;;4.43;;
37559;SDS011;23398;50.928;7.084;2023-03-01T14:45:26;8.18;;;4.57;;
37559;SDS011;23398;50.928;7.084;2023-03-01T14:47:53;8.38;;;5.43;;
37559;SDS011;23398;50.928;7.084;2023-03-01T14:50:27;6.88;;;5.40;;
37559;SDS011;23398;50.928;7.084;2023-03-01T14:52:59;7.78;;;5.82;;
37559;SDS011;23398;50.928;7.084;2023-03-01T14:58:12;8.15;;;5.00;;
37559;SDS011;23398;50.928;7.084;2023-03-01T15:00:43;7.20;;;5.05;;
37559;SDS011;23398;50.928;7.084;2023-03-01T15:03:15;6.43;;;5.00;;
37559;SDS011;23398;50.928;7.084;2023-03-01T15:05:48;6.13;;;4.90;;
37559;SDS011;23398;50.928;7.084;2023-03-01T15:08:16;6.50;;;5.00;;
37559;SDS011;23398;50.928;7.084;2023-03-01T15:10:55;8.18;;;5.50;;
37559;SDS011;23398;50.928;7.084;2023-03-01T15:13:29;7.07;;;5.35;;
37559;SDS011;23398;50.928;7.084;2023-03-01T15:16:05;6.88;;;4.80;;
37559;SDS011;23398;50.928;7.084;2023-03-01T15:18:43;6.93;;;4.93;;
37559;SDS011;23398;50.928;7.084;2023-03-01T15:23:41;9.20;;;5.28;;
37559;SDS011;23398;50.928;7.084;2023-03-01T15:26:26;6.80;;;5.35;;
37559;SDS011;23398;50.928;7.084;2023-03-01T15:28:55;6.43;;;5.22;;
37559;SDS011;23398;50.928;7.084;2023-03-01T15:31:31;6.57;;;4.95;;
37559;SDS011;23398;50.928;7.084;2023-03-01T15:34:34;7.28;;;5.50;;
37559;SDS011;23398;50.928;7.084;2023-03-01T15:36:55;7.00;;;5.50;;
37559;SDS011;23398;50.928;7.084;2023-03-01T15:41:49;6.05;;;4.55;;
37559;SDS011;23398;50.928;7.084;2023-03-01T15:44:16;6.20;;;4.88;;
37559;SDS011;23398;50.928;7.084;2023-03-01T15:46:49;7.10;;;5.05;;
37559;SDS011;23398;50.928;7.084;2023-03-01T15:49:58;6.75;;;5.10;;
37559;SDS011;23398;50.928;7.084;2023-03-01T15:52:06;6.00;;;4.80;;
37559;SDS011;23398;50.928;7.084;2023-03-01T15:54:44;7.15;;;4.40;;
37559;SDS011;23398;50.928;7.084;2023-03-01T15:57:14;6.13;;;4.53;;
37559;SDS011;23398;50.928;7.084;2023-03-01T15:59:40;8.73;;;4.57;;
37559;SDS011;23398;50.928;7.084;2023-03-01T16:02:10;8.57;;;4.57;;
37559;SDS011;23398;50.928;7.084;2023-03-01T16:04:38;4.88;;;3.92;;
37559;SDS011;23398;50.928;7.084;2023-03-01T16:07:04;7.15;;;4.30;;
37559;SDS011;23398;50.928;7.084;2023-03-01T16:09:31;5.70;;;4.53;;
37559;SDS011;23398;50.928;7.084;2023-03-01T16:11:57;5.40;;;3.95;;
37559;SDS011;23398;50.928;7.084;2023-03-01T16:14:23;5.65;;;4.30;;
37559;SDS011;23398;50.928;7.084;2023-03-01T16:16:48;6.35;;;4.20;;
37559;SDS011;23398;50.928;7.084;2023-03-01T16:19:14;6.85;;;4.13;;
37559;SDS011;23398;50.928;7.084;2023-03-01T16:21:41;5.32;;;3.88;;
37559;SDS011;23398;50.928;7.084;2023-03-01T16:24:08;6.32;;;4.53;;
37559;SDS011;23398;50.928;7.084;2023-03-01T16:26:35;6.47;;;4.38;;
37559;SDS011;23398;50.928;7.084;2023-03-01T16:29:02;6.30;;;4.35;;
37559;SDS011;23398;50.928;7.084;2023-03-01T16:31:27;4.72;;;4.03;;
37559;SDS011;23398;50.928;7.084;2023-03-01T16:33:57;6.35;;;4.20;;
37559;SDS011;23398;50.928;7.084;2023-03-01T16:36:24;6.50;;;4.40;;
37559;SDS011;23398;50.928;7.084;2023-03-01T16:38:53;9.35;;;4.13;;
37559;SDS011;23398;50.928;7.084;2023-03-01T16:41:20;6.15;;;3.95;;